Rose City, MI

4:01 AM EST on December 08, 2016 (GMT -0500)
Rose Township | | Change Station

Elev 922 ft 44.43 °N, 84.01 °W | Updated 2 seconds ago

Overcast
Overcast
24.4 °F
Feels Like 19 °F
N
4.5
Wind Variable Wind from NE
Gusts 15.2 mph

Today
High -- | Low -- °F
--% Chance of Precip.
Yesterday
High -- | Low -- °F
Precip. -- in
Pressure 29.95 in
Visibility 8.0 miles
Clouds Overcast 2400 ft
Windchill 19 °F
Dew Point 20 °F
Humidity 83%
Rainfall 0.00 in
Snow Depth Not available.
8:00 AM 4:56 PM
First Quarter, 61% visible
METAR KHTL 080853Z AUTO 26014G24KT 8SM -SN OVC024 M04/M09 A2990 RMK AO2 PK WND 27026/0805 SLP141 P0000 60000 T10441089 50000
Pressure 29.95 in
Visibility 8.0 miles
Clouds Overcast 2400 ft
Windchill 19 °F
Dew Point 20 °F
Humidity 83%
Rainfall 0.00 in
Snow Depth Not available.
8:00 AM 4:56 PM
First Quarter, 61% visible
METAR KHTL 080853Z AUTO 26014G24KT 8SM -SN OVC024 M04/M09 A2990 RMK AO2 PK WND 27026/0805 SLP141 P0000 60000 T10441089 50000

10-Day Weather Forecast

Almanac

Astronomy

Dec. 08, 2016 Rise Set
Actual Time
Civil Twilight
Nautical Twilight
Astronomical Twilight
Moon
Length of Visible Light
Length of Day
Tomorrow will be .
, % of the Moon is Illuminated

Today's Extremes

State Highs State Lows

Community

WunderPhotos

Upload Photos

1,956,259 photos uploaded!

WunderBlog® & News

Nearby

Air Quality

  Air Quality AQ Index Pollutant
Not available.

Snow Depth

Station Depth Elevation

Earthquake Activity

City Distance Mag. Time & Date
Minimum magnitude displayed is 2.5.

Coastal Water Temperatures

Place Temperature

Stations

Nearby Weather Stations

Station Location Temp. Windchill Dew Point Humidity Wind Precip. Elev Updated Type
                   

Watches & Warnings

There are currently no watches in effect.